Terminal Aerodrome Forecast
Issued by NWS North Platte, NE

Home | Current Version | Previous Version | Text Only | Print | Product List | Glossary On
Versions: 1 2 3 4 5 6 7 8 9 10 11 12
000
FTUS43 KLBF 282353 RRA
TAFVTN
TAF
KVTN 282353Z 2900/2924 29015KT P6SM SKC
     FM290300 28006KT P6SM SKC
     FM291700 30012G19KT P6SM SKC=

USA.gov is the U.S. government's official web portal to all federal, state and local government web resources and services.